Time;durP1;ratioP1;P1;durP2;ratioP2;P2;SDS_P1;SDS_P2;PMS_P1;PMS_P2;Temp;Humidity;BMP_temperature;BMP_pressure;BME280_temperature;BME280_humidity;BME280_pressure;Samples;Min_cycle;Max_cycle;Signal;HPM_P1;HPM_P2
2023/12/20 00:04:21;;;;;;;36.53;23.20;;;;;;;;;;10229095;28;20959;-85
2023/12/20 00:09:23;;;;;;;36.72;23.05;;;;;;;;;;10238680;29;20446;-85
2023/12/20 00:14:25;;;;;;;36.50;23.38;;;;;;;;;;10229397;28;20418;-84
2023/12/20 00:19:29;;;;;;;34.42;23.80;;;;;;;;;;10237173;29;20435;-85
2023/12/20 00:24:32;;;;;;;38.60;23.35;;;;;;;;;;10236663;28;20433;-85
2023/12/20 00:29:34;;;;;;;36.63;22.57;;;;;;;;;;10235510;29;20956;-85
2023/12/20 00:34:38;;;;;;;37.22;22.17;;;;;;;;;;10238225;29;20517;-85
2023/12/20 00:39:40;;;;;;;33.88;21.73;;;;;;;;;;10238687;28;20416;-85
2023/12/20 00:44:42;;;;;;;32.78;21.00;;;;;;;;;;10235532;29;20957;-85
2023/12/20 00:49:46;;;;;;;35.33;21.70;;;;;;;;;;10235864;29;20929;-85
2023/12/20 00:54:48;;;;;;;32.90;20.23;;;;;;;;;;10233819;29;20478;-85
2023/12/20 00:59:51;;;;;;;33.13;20.52;;;;;;;;;;10232306;29;20897;-85
2023/12/20 01:04:55;;;;;;;36.80;21.65;;;;;;;;;;10234954;29;20468;-84
2023/12/20 01:09:57;;;;;;;34.15;21.40;;;;;;;;;;10239374;29;20417;-85
2023/12/20 01:14:59;;;;;;;33.92;20.70;;;;;;;;;;10233123;29;20416;-85
2023/12/20 01:20:04;;;;;;;34.75;20.85;;;;;;;;;;10236109;29;20404;-85
2023/12/20 01:25:07;;;;;;;32.28;19.42;;;;;;;;;;10232499;29;20514;-85
2023/12/20 01:30:10;;;;;;;32.00;20.43;;;;;;;;;;10234787;29;20416;-85
2023/12/20 01:35:14;;;;;;;29.30;19.33;;;;;;;;;;10230128;29;20476;-84
2023/12/20 01:40:17;;;;;;;28.40;18.20;;;;;;;;;;10235200;29;20766;-84
2023/12/20 01:45:19;;;;;;;30.17;19.55;;;;;;;;;;10228682;29;20424;-84
2023/12/20 01:50:24;;;;;;;29.03;17.97;;;;;;;;;;10231872;29;20416;-85
2023/12/20 01:55:28;;;;;;;26.48;17.73;;;;;;;;;;10230815;29;20419;-85
2023/12/20 02:00:31;;;;;;;27.87;17.00;;;;;;;;;;10230146;29;20420;-84
2023/12/20 02:05:36;;;;;;;28.60;17.08;;;;;;;;;;10233872;29;20495;-84
2023/12/20 02:10:40;;;;;;;28.67;17.98;;;;;;;;;;10234326;29;20444;-85
2023/12/20 02:15:43;;;;;;;27.35;16.70;;;;;;;;;;10232947;29;20945;-85
2023/12/20 02:20:47;;;;;;;27.30;16.88;;;;;;;;;;10235489;28;20469;-85
2023/12/20 02:25:51;;;;;;;24.60;16.57;;;;;;;;;;10239023;29;20514;-85
2023/12/20 02:30:54;;;;;;;24.42;15.38;;;;;;;;;;10236740;29;21082;-84
2023/12/20 02:35:56;;;;;;;23.48;15.60;;;;;;;;;;10239501;28;20451;-84
2023/12/20 02:41:00;;;;;;;24.27;14.93;;;;;;;;;;10234405;29;20420;-83
2023/12/20 02:46:03;;;;;;;22.40;14.53;;;;;;;;;;10240153;29;20479;-84
2023/12/20 02:51:05;;;;;;;20.35;13.50;;;;;;;;;;10231748;29;20823;-85
2023/12/20 02:56:09;;;;;;;20.03;13.37;;;;;;;;;;10233940;29;21002;-85
2023/12/20 03:01:11;;;;;;;22.90;13.37;;;;;;;;;;10229286;28;20428;-85
2023/12/20 03:06:18;;;;;;;19.83;13.00;;;;;;;;;;10239176;29;20460;-85
2023/12/20 03:11:22;;;;;;;20.20;12.88;;;;;;;;;;10239893;29;20496;-84
2023/12/20 03:16:24;;;;;;;21.92;12.73;;;;;;;;;;10237797;29;20417;-85
2023/12/20 03:21:28;;;;;;;21.17;12.57;;;;;;;;;;10241249;29;20896;-84
2023/12/20 03:26:32;;;;;;;21.60;12.60;;;;;;;;;;10239074;29;20487;-84
2023/12/20 03:31:34;;;;;;;18.83;12.32;;;;;;;;;;10235382;28;20449;-85
2023/12/20 03:36:36;;;;;;;19.10;11.65;;;;;;;;;;10234311;28;20843;-85
2023/12/20 03:41:40;;;;;;;18.63;12.47;;;;;;;;;;10236484;29;20406;-85
2023/12/20 03:46:42;;;;;;;20.65;12.43;;;;;;;;;;10236293;29;20489;-85
2023/12/20 03:51:45;;;;;;;16.95;11.50;;;;;;;;;;10237001;29;20482;-84
2023/12/20 03:56:49;;;;;;;20.67;11.68;;;;;;;;;;10233211;29;20422;-85
2023/12/20 04:01:51;;;;;;;16.13;11.18;;;;;;;;;;10235713;29;20416;-85
2023/12/20 04:06:53;;;;;;;19.50;11.38;;;;;;;;;;10228216;28;20446;-84
2023/12/20 04:11:58;;;;;;;16.50;11.17;;;;;;;;;;10240148;29;20757;-83
2023/12/20 04:17:00;;;;;;;16.60;11.13;;;;;;;;;;10233997;28;20420;-85
2023/12/20 04:22:02;;;;;;;19.38;10.80;;;;;;;;;;10233078;29;20502;-84
2023/12/20 04:27:06;;;;;;;16.52;11.00;;;;;;;;;;10232865;29;20469;-85
2023/12/20 04:32:08;;;;;;;15.38;10.10;;;;;;;;;;10231685;29;20457;-85
2023/12/20 04:37:12;;;;;;;15.68;10.45;;;;;;;;;;10228687;29;20457;-85
2023/12/20 04:42:16;;;;;;;14.52;10.00;;;;;;;;;;10223643;29;20825;-85
2023/12/20 04:47:18;;;;;;;14.98;10.32;;;;;;;;;;10219848;29;20431;-84
2023/12/20 04:52:20;;;;;;;15.80;10.67;;;;;;;;;;10222060;29;20456;-85
2023/12/20 04:57:24;;;;;;;14.20;10.50;;;;;;;;;;10228025;29;20443;-83
2023/12/20 05:02:27;;;;;;;16.25;10.15;;;;;;;;;;10233679;29;20460;-85
2023/12/20 05:07:30;;;;;;;17.60;10.75;;;;;;;;;;10244039;29;20424;-84
2023/12/20 05:12:33;;;;;;;15.38;10.52;;;;;;;;;;10226056;29;20492;-84
2023/12/20 05:17:36;;;;;;;15.10;10.02;;;;;;;;;;10248046;29;20416;-85
2023/12/20 05:22:38;;;;;;;15.90;11.02;;;;;;;;;;10237604;29;20418;-85
2023/12/20 05:27:42;;;;;;;15.70;10.27;;;;;;;;;;10239228;29;20463;-85
2023/12/20 05:32:45;;;;;;;15.85;10.80;;;;;;;;;;10244025;29;20424;-85
2023/12/20 05:37:47;;;;;;;15.38;9.65;;;;;;;;;;10237981;29;20428;-84
2023/12/20 05:42:51;;;;;;;13.18;9.73;;;;;;;;;;10230616;29;20479;-85
2023/12/20 05:47:53;;;;;;;17.48;10.60;;;;;;;;;;10227921;29;20424;-84
2023/12/20 05:52:55;;;;;;;15.83;9.60;;;;;;;;;;10240004;29;20507;-85
2023/12/20 05:57:59;;;;;;;20.17;12.18;;;;;;;;;;10248350;29;20889;-84
2023/12/20 06:03:02;;;;;;;21.33;13.23;;;;;;;;;;10234829;29;20417;-85
2023/12/20 06:08:05;;;;;;;19.63;12.27;;;;;;;;;;10242162;29;20891;-85
2023/12/20 06:13:08;;;;;;;17.08;11.02;;;;;;;;;;10224957;29;20417;-86
2023/12/20 06:18:11;;;;;;;19.10;11.73;;;;;;;;;;10239857;29;20412;-85
2023/12/20 06:23:13;;;;;;;20.40;12.60;;;;;;;;;;10238813;28;20511;-85
2023/12/20 06:28:17;;;;;;;17.63;10.80;;;;;;;;;;10232132;29;21094;-87
2023/12/20 06:33:21;;;;;;;18.60;11.88;;;;;;;;;;10245959;29;20464;-87
2023/12/20 06:38:23;;;;;;;18.50;11.68;;;;;;;;;;10248108;29;20416;-87
2023/12/20 06:43:28;;;;;;;20.65;11.95;;;;;;;;;;10234798;29;20422;-85
2023/12/20 06:48:30;;;;;;;22.45;13.40;;;;;;;;;;10244109;29;20436;-85
2023/12/20 06:53:33;;;;;;;20.70;12.85;;;;;;;;;;10240543;29;20427;-88
2023/12/20 06:58:38;;;;;;;22.17;13.07;;;;;;;;;;10228924;29;20477;-87
2023/12/20 07:03:40;;;;;;;18.77;12.43;;;;;;;;;;10224821;28;20819;-87
2023/12/20 07:08:43;;;;;;;18.03;12.30;;;;;;;;;;10248306;29;20503;-87
2023/12/20 07:13:46;;;;;;;20.08;12.50;;;;;;;;;;10238704;29;20412;-87
2023/12/20 07:18:49;;;;;;;18.25;12.55;;;;;;;;;;10244653;29;20419;-86
2023/12/20 07:23:51;;;;;;;26.17;16.40;;;;;;;;;;10242108;28;20473;-87
2023/12/20 07:28:55;;;;;;;32.27;17.87;;;;;;;;;;10228416;29;20441;-88
2023/12/20 07:33:57;;;;;;;26.80;16.37;;;;;;;;;;10229205;29;20417;-86
2023/12/20 07:39:00;;;;;;;28.75;17.13;;;;;;;;;;10239463;29;21199;-87
2023/12/20 07:44:06;;;;;;;22.60;14.88;;;;;;;;;;10217574;29;20821;-86
2023/12/20 07:49:10;;;;;;;25.00;14.43;;;;;;;;;;10231026;29;20462;-87
2023/12/20 07:54:12;;;;;;;18.80;12.38;;;;;;;;;;10227951;29;20420;-87
2023/12/20 07:59:16;;;;;;;18.45;12.13;;;;;;;;;;10241175;28;20408;-87
2023/12/20 08:04:18;;;;;;;24.40;12.23;;;;;;;;;;10227719;29;20465;-86
2023/12/20 08:09:20;;;;;;;19.67;12.40;;;;;;;;;;10230927;28;20468;-86
2023/12/20 08:14:24;;;;;;;22.30;12.95;;;;;;;;;;10219524;28;20513;-85
2023/12/20 08:19:27;;;;;;;23.02;15.45;;;;;;;;;;10233538;29;20417;-85
2023/12/20 08:24:30;;;;;;;22.23;14.80;;;;;;;;;;10237674;29;20476;-84
2023/12/20 08:29:34;;;;;;;30.80;16.05;;;;;;;;;;10223968;29;20439;-86
2023/12/20 08:34:37;;;;;;;26.95;16.98;;;;;;;;;;10239187;29;20953;-86
2023/12/20 08:39:39;;;;;;;22.38;14.93;;;;;;;;;;10239341;29;20518;-86
2023/12/20 08:44:43;;;;;;;20.03;13.27;;;;;;;;;;10238506;29;20706;-86
2023/12/20 08:49:46;;;;;;;21.85;14.25;;;;;;;;;;10235106;29;20453;-86
2023/12/20 08:54:48;;;;;;;22.63;13.97;;;;;;;;;;10237405;28;20477;-86
2023/12/20 08:59:52;;;;;;;27.35;16.25;;;;;;;;;;10217089;29;20456;-86
2023/12/20 09:04:55;;;;;;;29.45;17.45;;;;;;;;;;10230649;29;20429;-86
2023/12/20 09:09:57;;;;;;;26.20;15.68;;;;;;;;;;10233395;29;20420;-85
2023/12/20 09:15:02;;;;;;;26.23;15.55;;;;;;;;;;10237279;29;20906;-86
2023/12/20 09:20:06;;;;;;;21.93;13.27;;;;;;;;;;10244867;29;20451;-85
2023/12/20 09:25:10;;;;;;;21.48;14.27;;;;;;;;;;10241501;29;20477;-85
2023/12/20 09:30:17;;;;;;;23.40;14.07;;;;;;;;;;10246549;28;20927;-86
2023/12/20 09:35:19;;;;;;;20.45;12.23;;;;;;;;;;10236624;29;20431;-86
2023/12/20 09:40:21;;;;;;;22.52;13.45;;;;;;;;;;10247961;29;20445;-85
2023/12/20 09:45:26;;;;;;;20.60;12.85;;;;;;;;;;10237356;29;20469;-86
2023/12/20 09:50:30;;;;;;;22.37;12.83;;;;;;;;;;10246822;28;20483;-86
2023/12/20 09:55:34;;;;;;;17.13;11.27;;;;;;;;;;10255038;28;20478;-86
2023/12/20 10:00:38;;;;;;;20.33;11.45;;;;;;;;;;10244779;28;20412;-86
2023/12/20 10:05:44;;;;;;;18.17;11.55;;;;;;;;;;10251728;28;20440;-85
2023/12/20 10:10:46;;;;;;;16.75;11.30;;;;;;;;;;10250325;28;20423;-87
2023/12/20 10:15:51;;;;;;;19.02;11.68;;;;;;;;;;10239243;28;20469;-86
2023/12/20 10:20:54;;;;;;;20.60;12.82;;;;;;;;;;10241341;29;20424;-84
2023/12/20 10:26:00;;;;;;;29.73;18.13;;;;;;;;;;10237099;28;20434;-85
2023/12/20 10:31:04;;;;;;;25.25;15.63;;;;;;;;;;10251327;28;20891;-86
2023/12/20 10:36:07;;;;;;;24.13;14.20;;;;;;;;;;10232485;28;20493;-85
2023/12/20 10:41:11;;;;;;;29.42;18.40;;;;;;;;;;10238626;28;20447;-86
2023/12/20 10:46:15;;;;;;;28.58;16.05;;;;;;;;;;10235835;28;20436;-86
2023/12/20 10:51:20;;;;;;;26.20;16.13;;;;;;;;;;10242315;28;20416;-86
2023/12/20 10:56:23;;;;;;;23.63;16.23;;;;;;;;;;10247094;28;20787;-85
2023/12/20 11:01:29;;;;;;;26.33;14.90;;;;;;;;;;10247234;28;20876;-85
2023/12/20 11:06:37;;;;;;;26.20;17.73;;;;;;;;;;10242953;28;20432;-83
2023/12/20 11:11:53;;;;;;;26.80;18.60;;;;;;;;;;10223954;28;20420;-86
2023/12/20 11:17:09;;;;;;;28.35;15.77;;;;;;;;;;10236864;28;20412;-84
2023/12/20 11:22:11;;;;;;;24.75;14.98;;;;;;;;;;10223547;29;20410;-86
2023/12/20 11:27:14;;;;;;;26.27;15.63;;;;;;;;;;10227826;28;20438;-86
2023/12/20 11:32:30;;;;;;;27.17;15.77;;;;;;;;;;10223157;28;20410;-86
2023/12/20 11:37:37;;;;;;;26.77;18.00;;;;;;;;;;10233641;28;20412;-85
2023/12/20 11:42:40;;;;;;;29.73;17.10;;;;;;;;;;10236606;28;20416;-85
2023/12/20 11:47:47;;;;;;;33.42;17.45;;;;;;;;;;10228356;28;20472;-86
2023/12/20 11:52:50;;;;;;;25.10;16.23;;;;;;;;;;10240085;28;20903;-89
2023/12/20 11:57:53;;;;;;;27.17;16.95;;;;;;;;;;10215999;28;20467;-85
2023/12/20 12:02:58;;;;;;;29.60;18.42;;;;;;;;;;10226830;28;20423;-86
2023/12/20 12:08:01;;;;;;;29.10;17.25;;;;;;;;;;10227011;28;20460;-85
2023/12/20 12:13:03;;;;;;;30.57;19.23;;;;;;;;;;10220787;28;20496;-85
2023/12/20 12:18:08;;;;;;;28.65;19.17;;;;;;;;;;10217730;29;20412;-87
2023/12/20 12:23:11;;;;;;;32.67;22.15;;;;;;;;;;10239994;28;20452;-87
2023/12/20 12:28:13;;;;;;;39.35;21.75;;;;;;;;;;10243689;29;20494;-87
2023/12/20 12:33:18;;;;;;;30.50;19.13;;;;;;;;;;10234162;29;20406;-87
2023/12/20 12:38:22;;;;;;;27.55;18.02;;;;;;;;;;10234133;28;20443;-88
2023/12/20 12:43:24;;;;;;;31.27;19.00;;;;;;;;;;10239702;28;20463;-88
2023/12/20 12:48:28;;;;;;;29.42;18.05;;;;;;;;;;10227182;28;20432;-85
2023/12/20 12:53:31;;;;;;;29.27;18.40;;;;;;;;;;10236563;28;20472;-86
2023/12/20 12:58:33;;;;;;;28.48;17.65;;;;;;;;;;10229112;28;20414;-85
2023/12/20 13:03:38;;;;;;;28.83;18.60;;;;;;;;;;10236383;28;20416;-86
2023/12/20 13:08:41;;;;;;;28.02;17.38;;;;;;;;;;10238813;28;20436;-86
2023/12/20 13:13:44;;;;;;;25.90;16.95;;;;;;;;;;10226215;28;20955;-83
2023/12/20 13:18:48;;;;;;;29.10;17.05;;;;;;;;;;10225509;28;20449;-84
2023/12/20 13:23:50;;;;;;;35.40;18.23;;;;;;;;;;10218040;28;20785;-83
2023/12/20 13:28:52;;;;;;;69.22;32.70;;;;;;;;;;10220038;28;20473;-84
2023/12/20 13:33:56;;;;;;;25.55;16.77;;;;;;;;;;10218264;28;21178;-82
2023/12/20 13:38:59;;;;;;;74.65;35.03;;;;;;;;;;10213626;28;20418;-84
2023/12/20 13:44:03;;;;;;;29.13;17.80;;;;;;;;;;10223441;28;20847;-83
2023/12/20 13:49:07;;;;;;;29.42;17.70;;;;;;;;;;10228041;28;20479;-83
2023/12/20 13:54:10;;;;;;;30.37;17.80;;;;;;;;;;10229516;28;20483;-82
2023/12/20 13:59:13;;;;;;;30.95;19.08;;;;;;;;;;10271144;23;20458;-83
2023/12/20 14:04:17;;;;;;;33.95;20.35;;;;;;;;;;10280906;28;20406;-82
2023/12/20 14:09:19;;;;;;;33.03;18.93;;;;;;;;;;10267564;28;20499;-83
2023/12/20 14:14:22;;;;;;;38.10;21.37;;;;;;;;;;10261975;28;20489;-83
2023/12/20 14:19:26;;;;;;;37.85;20.98;;;;;;;;;;10277854;28;20511;-83
2023/12/20 14:24:29;;;;;;;36.77;20.93;;;;;;;;;;10276024;28;20966;-83
2023/12/20 14:29:31;;;;;;;32.90;19.75;;;;;;;;;;10274700;28;20520;-83
2023/12/20 14:34:36;;;;;;;33.03;18.90;;;;;;;;;;10272760;28;20449;-83
2023/12/20 14:39:41;;;;;;;49.70;27.35;;;;;;;;;;10277215;28;20450;-83
2023/12/20 14:44:45;;;;;;;35.10;19.83;;;;;;;;;;10274544;28;20434;-82
2023/12/20 14:49:51;;;;;;;45.90;23.97;;;;;;;;;;10273653;28;20466;-83
2023/12/20 14:54:53;;;;;;;47.10;24.95;;;;;;;;;;10273088;28;20462;-83
2023/12/20 14:59:56;;;;;;;42.38;24.25;;;;;;;;;;10273341;28;20438;-83
2023/12/20 15:05:01;;;;;;;45.67;27.03;;;;;;;;;;10274049;28;20498;-83
2023/12/20 15:10:04;;;;;;;35.72;22.30;;;;;;;;;;10270923;28;20529;-83
2023/12/20 15:15:09;;;;;;;38.78;22.60;;;;;;;;;;10274545;28;20454;-83
2023/12/20 15:20:13;;;;;;;35.97;21.42;;;;;;;;;;10274225;28;20435;-83
2023/12/20 15:25:21;;;;;;;34.55;19.98;;;;;;;;;;10276045;28;20546;-83
2023/12/20 15:30:24;;;;;;;32.38;20.08;;;;;;;;;;10275572;28;20540;-83
2023/12/20 15:35:28;;;;;;;37.65;20.85;;;;;;;;;;10279889;28;20435;-84
2023/12/20 15:40:30;;;;;;;37.63;20.92;;;;;;;;;;10280745;28;20410;-84
2023/12/20 15:45:33;;;;;;;36.83;21.10;;;;;;;;;;10274335;28;20414;-86
2023/12/20 15:50:37;;;;;;;33.03;19.70;;;;;;;;;;10273238;28;20608;-86
2023/12/20 15:55:39;;;;;;;33.75;19.40;;;;;;;;;;10272374;28;20920;-86
2023/12/20 16:00:41;;;;;;;31.53;18.90;;;;;;;;;;10265463;28;20479;-85
2023/12/20 16:05:45;;;;;;;32.80;19.20;;;;;;;;;;10279072;28;20451;-85
2023/12/20 16:10:48;;;;;;;30.08;17.95;;;;;;;;;;10276182;28;20494;-84
2023/12/20 16:15:50;;;;;;;26.53;16.80;;;;;;;;;;10269174;28;21005;-84
2023/12/20 16:20:54;;;;;;;35.23;18.93;;;;;;;;;;10277196;28;20442;-84
2023/12/20 16:25:56;;;;;;;38.63;20.63;;;;;;;;;;10274147;28;21003;-84
2023/12/20 16:30:59;;;;;;;30.83;18.60;;;;;;;;;;10271898;28;20458;-84
2023/12/20 16:36:02;;;;;;;32.45;19.95;;;;;;;;;;10277429;28;20422;-84
2023/12/20 16:41:05;;;;;;;38.90;20.70;;;;;;;;;;10272275;28;20527;-84
2023/12/20 16:46:08;;;;;;;36.80;20.80;;;;;;;;;;10285235;28;20422;-83
2023/12/20 16:51:12;;;;;;;35.27;20.07;;;;;;;;;;10268544;28;20451;-84
2023/12/20 16:56:14;;;;;;;39.00;19.60;;;;;;;;;;10277064;28;20962;-83
2023/12/20 17:01:19;;;;;;;37.47;21.15;;;;;;;;;;10282409;28;20415;-85
2023/12/20 17:06:24;;;;;;;35.30;21.15;;;;;;;;;;10279232;28;20430;-84
2023/12/20 17:11:27;;;;;;;52.67;29.27;;;;;;;;;;10280517;28;20505;-84
2023/12/20 17:16:29;;;;;;;44.78;23.92;;;;;;;;;;10267814;28;20953;-84
2023/12/20 17:21:33;;;;;;;48.35;26.92;;;;;;;;;;10272097;28;20422;-84
2023/12/20 17:26:36;;;;;;;56.10;29.17;;;;;;;;;;10279025;28;20426;-87
2023/12/20 17:31:38;;;;;;;42.67;24.77;;;;;;;;;;10268655;28;20776;-88
2023/12/20 17:36:43;;;;;;;47.35;26.05;;;;;;;;;;10285815;28;20414;-88
2023/12/20 17:41:46;;;;;;;120.28;58.38;;;;;;;;;;10275539;28;20822;-88
2023/12/20 17:46:48;;;;;;;71.13;35.97;;;;;;;;;;10284849;28;20752;-88
2023/12/20 17:51:52;;;;;;;40.43;23.47;;;;;;;;;;10279748;28;20537;-86
2023/12/20 17:56:56;;;;;;;45.17;23.35;;;;;;;;;;10282134;28;20500;-88
2023/12/20 18:01:59;;;;;;;46.37;28.57;;;;;;;;;;10268454;28;20623;-87
2023/12/20 18:07:03;;;;;;;50.53;29.17;;;;;;;;;;10287790;28;20943;-85
2023/12/20 18:12:06;;;;;;;56.10;30.67;;;;;;;;;;10287888;28;20469;-87
2023/12/20 18:17:09;;;;;;;52.10;30.40;;;;;;;;;;10287211;28;20889;-88
2023/12/20 18:22:14;;;;;;;40.28;24.45;;;;;;;;;;10287503;28;20421;-87
2023/12/20 18:27:18;;;;;;;42.85;23.88;;;;;;;;;;10283165;28;20450;-87
2023/12/20 18:32:21;;;;;;;39.40;23.45;;;;;;;;;;10286456;28;20776;-86
2023/12/20 18:37:26;;;;;;;43.58;23.52;;;;;;;;;;10279407;28;20888;-87
2023/12/20 18:42:29;;;;;;;41.33;24.33;;;;;;;;;;10288953;28;20415;-85
2023/12/20 18:47:32;;;;;;;47.10;27.20;;;;;;;;;;10286458;28;20406;-85
2023/12/20 18:52:39;;;;;;;46.22;27.38;;;;;;;;;;10283282;28;20457;-85
2023/12/20 18:57:42;;;;;;;41.90;24.90;;;;;;;;;;10291629;28;20468;-85
2023/12/20 19:02:45;;;;;;;44.63;26.35;;;;;;;;;;10284145;28;20456;-85
2023/12/20 19:07:50;;;;;;;51.55;27.48;;;;;;;;;;10272999;28;20478;-85
2023/12/20 19:12:57;;;;;;;68.22;39.90;;;;;;;;;;10278609;28;20479;-86
2023/12/20 19:18:08;;;;;;;53.97;30.77;;;;;;;;;;10283212;28;20416;-85
2023/12/20 19:23:12;;;;;;;46.03;28.97;;;;;;;;;;10284591;28;20434;-85
2023/12/20 19:33:57;;;;;;;40.20;25.73;;;;;;;;;;10265696;28;20519;-87
2023/12/20 19:39:04;;;;;;;51.47;27.00;;;;;;;;;;10285005;28;20423;-86
2023/12/20 19:44:16;;;;;;;37.83;21.90;;;;;;;;;;10283483;28;20410;-85
2023/12/20 19:49:24;;;;;;;70.00;37.15;;;;;;;;;;10275879;28;20498;-85
2023/12/20 19:54:29;;;;;;;69.10;39.05;;;;;;;;;;10272974;28;20445;-85
2023/12/20 19:59:32;;;;;;;50.08;30.38;;;;;;;;;;10284133;28;20421;-85
2023/12/20 20:04:41;;;;;;;76.97;38.05;;;;;;;;;;10279038;28;20471;-83
2023/12/20 20:09:45;;;;;;;45.95;26.80;;;;;;;;;;10281187;28;25122;-85
2023/12/20 20:14:51;;;;;;;39.93;25.67;;;;;;;;;;10282109;28;20480;-85
2023/12/20 20:19:53;;;;;;;40.83;26.17;;;;;;;;;;10273028;28;20468;-85
2023/12/20 20:24:57;;;;;;;38.55;22.55;;;;;;;;;;10267848;28;20445;-84
2023/12/20 20:30:00;;;;;;;42.83;25.23;;;;;;;;;;10276824;28;20478;-85
2023/12/20 20:35:03;;;;;;;50.95;28.30;;;;;;;;;;10280466;28;20514;-85
2023/12/20 20:40:08;;;;;;;38.95;23.17;;;;;;;;;;10278293;28;20456;-86
2023/12/20 20:45:11;;;;;;;180.40;70.05;;;;;;;;;;10276376;28;20533;-86
2023/12/20 20:50:13;;;;;;;136.47;55.13;;;;;;;;;;10255695;28;20469;-86
2023/12/20 20:55:17;;;;;;;38.17;23.05;;;;;;;;;;10264757;28;20536;-85
2023/12/20 21:00:20;;;;;;;45.13;26.65;;;;;;;;;;10277325;28;20474;-85
2023/12/20 21:05:23;;;;;;;41.07;24.83;;;;;;;;;;10269195;28;20763;-85
2023/12/20 21:10:27;;;;;;;38.80;24.33;;;;;;;;;;10274481;28;20462;-85
2023/12/20 21:15:29;;;;;;;36.17;21.30;;;;;;;;;;10266842;28;20451;-86
2023/12/20 21:20:32;;;;;;;32.72;21.35;;;;;;;;;;10269933;28;20523;-84
2023/12/20 21:25:36;;;;;;;32.85;21.23;;;;;;;;;;10272130;28;20463;-85
2023/12/20 21:30:48;;;;;;;32.40;20.13;;;;;;;;;;10277272;28;20458;-84
2023/12/20 21:35:51;;;;;;;34.00;21.35;;;;;;;;;;10289356;28;20430;-85
2023/12/20 21:40:55;;;;;;;34.30;21.97;;;;;;;;;;10281295;28;20487;-86
2023/12/20 21:45:57;;;;;;;33.67;20.83;;;;;;;;;;10278324;28;20601;-86
2023/12/20 21:51:00;;;;;;;36.22;20.85;;;;;;;;;;10286338;28;20498;-85
2023/12/20 21:56:05;;;;;;;33.45;20.27;;;;;;;;;;10286638;28;20497;-86
2023/12/20 22:01:07;;;;;;;29.27;18.70;;;;;;;;;;10292556;28;20558;-86
2023/12/20 22:06:10;;;;;;;33.78;18.45;;;;;;;;;;10287393;28;20833;-85
2023/12/20 22:11:14;;;;;;;26.95;17.42;;;;;;;;;;10286554;28;20912;-86
2023/12/20 22:16:16;;;;;;;28.08;17.85;;;;;;;;;;10272676;28;20474;-86
2023/12/20 22:21:18;;;;;;;26.00;17.77;;;;;;;;;;10279032;28;20418;-85
2023/12/20 22:26:24;;;;;;;27.05;17.50;;;;;;;;;;10286663;28;20517;-85
2023/12/20 22:31:27;;;;;;;28.47;17.93;;;;;;;;;;10284288;28;20486;-86
2023/12/20 22:36:29;;;;;;;27.83;18.15;;;;;;;;;;10286413;28;20458;-86
2023/12/20 22:41:33;;;;;;;26.83;16.65;;;;;;;;;;10288884;28;20422;-86
2023/12/20 22:46:36;;;;;;;35.17;17.77;;;;;;;;;;10297130;28;20450;-87
2023/12/20 22:51:38;;;;;;;25.83;16.85;;;;;;;;;;10283824;28;20493;-85
2023/12/20 22:56:42;;;;;;;28.40;17.10;;;;;;;;;;10281389;28;20415;-86
2023/12/20 23:01:45;;;;;;;28.33;17.77;;;;;;;;;;10276440;28;20473;-89
2023/12/20 23:06:47;;;;;;;24.47;16.37;;;;;;;;;;10282372;28;20428;-89
2023/12/20 23:11:51;;;;;;;25.40;16.88;;;;;;;;;;10288129;28;20431;-87
2023/12/20 23:16:54;;;;;;;23.70;16.13;;;;;;;;;;10287725;28;20976;-87
2023/12/20 23:21:56;;;;;;;28.37;16.60;;;;;;;;;;10291263;28;20467;-87
2023/12/20 23:27:00;;;;;;;23.83;15.07;;;;;;;;;;10285652;28;20443;-87
2023/12/20 23:32:02;;;;;;;23.65;14.80;;;;;;;;;;10287507;28;20970;-87
2023/12/20 23:37:05;;;;;;;23.67;14.90;;;;;;;;;;10285908;28;20961;-86
2023/12/20 23:42:09;;;;;;;23.60;14.90;;;;;;;;;;10287455;28;20431;-87
2023/12/20 23:47:15;;;;;;;22.85;14.77;;;;;;;;;;10286748;28;21007;-87
2023/12/20 23:52:18;;;;;;;23.17;14.77;;;;;;;;;;10290264;28;20438;-87
2023/12/20 23:57:21;;;;;;;21.23;13.70;;;;;;;;;;10283255;28;20470;-87
